Hawthorne Army Ammunition Pl, Nevada
Current Conditions -  °F | °C
As of 8:52 AM on Thursday 27 Nov 2014 (Local Time) from KBAN Reporting Station
Clear Clear  
Wind Chill: 36°   Ceiling: Unl
Heat Index: 36°   Visibility: NA
Dew Point: 23°   Wind: 0mph
Humidity: 59%   Direction: NA
Pressure: 30.36"   Gusts: NA
Location:  38.6331°N, 118.656°W
Report Text: KBAN 271652Z AUTO 00000KT CLR 02/M05 A3036 RMK AO2 SLP277 T00221050 FZRANO $
Loading
Personal Weather Stations






























Interactive Weather Map New forecast layout! Learn more

10-Day Weather Forecast

Advertisements
Track Severe Weather on mobile